Time;durP1;ratioP1;P1;durP2;ratioP2;P2;SDS_P1;SDS_P2;PMS_P1;PMS_P2;Temp;Humidity;BMP_temperature;BMP_pressure;BME280_temperature;BME280_humidity;BME280_pressure;Samples;Min_cycle;Max_cycle;Signal;HPM_P1;HPM_P2
2023/05/09 00:00:38;;;;;;;28.65;22.20;;;;;;;;;;5097590;28;20020;-72
2023/05/09 00:06:31;;;;;;;20.42;15.25;;;;;;;;;;5110944;27;20388;-71
2023/05/09 00:08:57;;;;;;;27.50;15.23;;;;;;;;;;5111452;28;20422;-71
2023/05/09 00:11:24;;;;;;;25.98;16.55;;;;;;;;;;5099134;28;20500;-69
2023/05/09 00:13:52;;;;;;;19.83;13.90;;;;;;;;;;5090985;28;20021;-69
2023/05/09 00:16:19;;;;;;;16.98;12.60;;;;;;;;;;5090716;28;20020;-68
2023/05/09 00:18:46;;;;;;;19.42;12.43;;;;;;;;;;5090749;28;20512;-69
2023/05/09 00:21:13;;;;;;;14.65;9.88;;;;;;;;;;5094160;28;20076;-68
2023/05/09 00:23:40;;;;;;;11.20;8.82;;;;;;;;;;5110931;28;20564;-69
2023/05/09 00:26:06;;;;;;;11.02;8.15;;;;;;;;;;5108038;28;20662;-69
2023/05/09 00:28:33;;;;;;;13.68;9.07;;;;;;;;;;5090636;28;20025;-70
2023/05/09 00:31:00;;;;;;;12.98;7.88;;;;;;;;;;5090873;28;20385;-70
2023/05/09 00:33:26;;;;;;;10.75;6.82;;;;;;;;;;5090008;28;20396;-70
2023/05/09 00:35:53;;;;;;;12.50;8.65;;;;;;;;;;5090501;28;20103;-68
2023/05/09 00:38:20;;;;;;;18.00;9.38;;;;;;;;;;5090376;28;20021;-67
2023/05/09 00:40:47;;;;;;;21.13;8.25;;;;;;;;;;5090284;28;20511;-67
2023/05/09 00:43:13;;;;;;;15.00;8.13;;;;;;;;;;5090383;28;20488;-66
2023/05/09 00:45:40;;;;;;;13.52;7.88;;;;;;;;;;5090255;28;20031;-71
2023/05/09 00:48:07;;;;;;;12.05;8.00;;;;;;;;;;5088886;28;20016;-69
2023/05/09 00:50:33;;;;;;;13.45;8.85;;;;;;;;;;5089615;28;20024;-67
2023/05/09 00:53:00;;;;;;;17.70;11.20;;;;;;;;;;5088758;28;20461;-68
2023/05/09 00:55:27;;;;;;;18.42;12.65;;;;;;;;;;5088812;28;20024;-70
2023/05/09 00:57:53;;;;;;;16.55;12.07;;;;;;;;;;5089450;28;20481;-71
2023/05/09 01:00:20;;;;;;;14.18;11.20;;;;;;;;;;5090004;28;20036;-69
2023/05/09 01:02:49;;;;;;;16.83;12.48;;;;;;;;;;5087278;28;20484;-71
2023/05/09 01:05:16;;;;;;;23.73;16.02;;;;;;;;;;5077131;28;20528;-69
2023/05/09 01:07:45;;;;;;;22.42;15.50;;;;;;;;;;5089789;28;20473;-71
2023/05/09 01:10:16;;;;;;;27.85;16.33;;;;;;;;;;5089350;28;20020;-70
2023/05/09 01:12:45;;;;;;;33.50;18.05;;;;;;;;;;5089695;28;20420;-73
2023/05/09 01:15:13;;;;;;;22.52;17.45;;;;;;;;;;5089603;28;20415;-71
2023/05/09 01:17:42;;;;;;;20.02;13.25;;;;;;;;;;5075349;28;20032;-72
2023/05/09 01:20:10;;;;;;;16.33;11.82;;;;;;;;;;5076055;28;20024;-68
2023/05/09 01:22:37;;;;;;;27.48;19.88;;;;;;;;;;5075456;28;20059;-71
2023/05/09 01:25:06;;;;;;;21.80;16.38;;;;;;;;;;5075878;28;20029;-71
2023/05/09 01:27:37;;;;;;;30.23;19.23;;;;;;;;;;5075958;28;20490;-71
2023/05/09 01:30:05;;;;;;;67.10;46.33;;;;;;;;;;5075365;28;20029;-72
2023/05/09 01:32:35;;;;;;;15.85;12.80;;;;;;;;;;5073819;28;20020;-70
2023/05/09 01:35:03;;;;;;;24.00;13.55;;;;;;;;;;5075903;28;20034;-70
2023/05/09 01:37:31;;;;;;;19.42;15.00;;;;;;;;;;5075694;28;20024;-69
2023/05/09 01:40:00;;;;;;;29.38;16.70;;;;;;;;;;5075801;28;20099;-70
2023/05/09 01:42:30;;;;;;;29.83;19.27;;;;;;;;;;5075807;28;20520;-71
2023/05/09 01:44:58;;;;;;;24.60;15.05;;;;;;;;;;5075036;28;20032;-72
2023/05/09 01:47:26;;;;;;;28.60;19.95;;;;;;;;;;5074199;28;20048;-71
2023/05/09 01:49:53;;;;;;;29.80;23.25;;;;;;;;;;5075588;28;20063;-71
2023/05/09 01:52:20;;;;;;;40.45;22.60;;;;;;;;;;5075356;28;20024;-71
2023/05/09 01:54:48;;;;;;;82.75;70.68;;;;;;;;;;5072950;28;20576;-71
2023/05/09 01:57:15;;;;;;;21.77;15.00;;;;;;;;;;5075410;28;20075;-70
2023/05/09 01:59:42;;;;;;;38.30;18.20;;;;;;;;;;5075124;28;20020;-72
2023/05/09 02:02:09;;;;;;;31.85;17.02;;;;;;;;;;5075533;28;20024;-71
2023/05/09 02:04:36;;;;;;;49.00;27.27;;;;;;;;;;5075012;28;20542;-71
2023/05/09 02:07:05;;;;;;;73.15;47.42;;;;;;;;;;5073728;28;20449;-69
2023/05/09 02:09:31;;;;;;;36.70;21.25;;;;;;;;;;5075176;28;20016;-70
2023/05/09 02:11:58;;;;;;;29.13;15.65;;;;;;;;;;5075162;28;20031;-70
2023/05/09 02:14:25;;;;;;;33.50;15.02;;;;;;;;;;5075003;28;20056;-71
2023/05/09 02:16:51;;;;;;;23.98;13.52;;;;;;;;;;5075027;28;20381;-71
2023/05/09 02:19:18;;;;;;;38.90;19.23;;;;;;;;;;5075231;28;20535;-71
2023/05/09 02:21:45;;;;;;;63.70;30.88;;;;;;;;;;5074486;28;20024;-71
2023/05/09 02:24:11;;;;;;;93.10;43.22;;;;;;;;;;5059650;28;20064;-69
2023/05/09 02:26:38;;;;;;;125.03;60.45;;;;;;;;;;5060329;28;20023;-73
2023/05/09 02:29:06;;;;;;;106.70;53.15;;;;;;;;;;5070604;28;20377;-71
2023/05/09 02:31:33;;;;;;;88.22;40.47;;;;;;;;;;5074463;28;20013;-71
2023/05/09 02:34:00;;;;;;;61.42;31.77;;;;;;;;;;5074389;28;20092;-71
2023/05/09 02:36:27;;;;;;;45.05;24.30;;;;;;;;;;5071662;28;20098;-71
2023/05/09 02:38:54;;;;;;;63.38;29.55;;;;;;;;;;5073948;28;20028;-70
2023/05/09 02:41:21;;;;;;;42.35;21.30;;;;;;;;;;5069901;28;20027;-71
2023/05/09 02:43:47;;;;;;;27.63;14.55;;;;;;;;;;5074104;28;20062;-69
2023/05/09 02:46:14;;;;;;;19.80;11.30;;;;;;;;;;5074209;28;20020;-72
2023/05/09 02:48:40;;;;;;;23.65;11.25;;;;;;;;;;5074460;28;20043;-71
2023/05/09 02:51:07;;;;;;;19.05;9.65;;;;;;;;;;5071674;28;20378;-71
2023/05/09 02:53:34;;;;;;;21.08;11.77;;;;;;;;;;5074434;28;20017;-70
2023/05/09 02:56:00;;;;;;;17.02;12.35;;;;;;;;;;5074415;28;20021;-70
2023/05/09 02:58:27;;;;;;;15.27;10.60;;;;;;;;;;5071420;28;20059;-70
2023/05/09 03:00:53;;;;;;;23.98;10.60;;;;;;;;;;5073559;28;20107;-70
2023/05/09 03:03:22;;;;;;;17.42;10.38;;;;;;;;;;5073928;28;20066;-73
2023/05/09 03:05:48;;;;;;;15.18;8.85;;;;;;;;;;5069043;28;20040;-71
2023/05/09 03:08:15;;;;;;;14.10;8.25;;;;;;;;;;5072947;28;20088;-70
2023/05/09 03:10:42;;;;;;;13.57;7.65;;;;;;;;;;5074126;28;20470;-68
2023/05/09 03:13:09;;;;;;;13.38;7.50;;;;;;;;;;5074112;28;20095;-68
2023/05/09 03:15:35;;;;;;;14.32;7.97;;;;;;;;;;5074212;28;20029;-68
2023/05/09 03:18:02;;;;;;;11.60;6.80;;;;;;;;;;5073497;28;20035;-68
2023/05/09 03:20:29;;;;;;;8.50;6.68;;;;;;;;;;5073646;28;20032;-67
2023/05/09 03:22:55;;;;;;;12.43;6.55;;;;;;;;;;5073966;28;20032;-67
2023/05/09 03:25:22;;;;;;;7.25;5.95;;;;;;;;;;5073826;28;20035;-68
2023/05/09 03:27:49;;;;;;;10.20;6.03;;;;;;;;;;5073763;28;20095;-68
2023/05/09 03:30:16;;;;;;;14.07;6.13;;;;;;;;;;5073672;28;20017;-67
2023/05/09 03:32:43;;;;;;;10.70;5.82;;;;;;;;;;5073648;28;20031;-68
2023/05/09 03:35:10;;;;;;;14.45;6.82;;;;;;;;;;5073588;28;20531;-69
2023/05/09 03:37:36;;;;;;;20.35;11.60;;;;;;;;;;5072794;28;20040;-66
2023/05/09 03:40:03;;;;;;;21.45;12.10;;;;;;;;;;5073450;28;20021;-68
2023/05/09 03:42:30;;;;;;;13.75;8.65;;;;;;;;;;5073557;28;20028;-67
2023/05/09 03:44:56;;;;;;;14.85;8.40;;;;;;;;;;5073676;28;20035;-65
2023/05/09 03:47:23;;;;;;;11.73;8.18;;;;;;;;;;5073456;28;20100;-67
2023/05/09 03:49:49;;;;;;;15.23;8.55;;;;;;;;;;5073743;28;20477;-69
2023/05/09 03:52:16;;;;;;;14.88;9.27;;;;;;;;;;5073542;28;20033;-69
2023/05/09 03:54:43;;;;;;;16.27;9.18;;;;;;;;;;5063916;28;20115;-73
2023/05/09 03:57:09;;;;;;;16.02;8.70;;;;;;;;;;5071824;28;20032;-72
2023/05/09 03:59:36;;;;;;;15.88;9.25;;;;;;;;;;5072327;28;20477;-68
2023/05/09 04:02:03;;;;;;;14.95;7.65;;;;;;;;;;5072389;28;20109;-69
2023/05/09 04:04:29;;;;;;;12.32;6.75;;;;;;;;;;5072200;28;20428;-70
2023/05/09 04:06:56;;;;;;;11.40;7.45;;;;;;;;;;5072298;28;20515;-67
2023/05/09 04:09:22;;;;;;;14.48;9.02;;;;;;;;;;5073031;28;20021;-68
2023/05/09 04:11:49;;;;;;;11.75;7.78;;;;;;;;;;5073923;28;20066;-67
2023/05/09 04:14:16;;;;;;;17.30;8.90;;;;;;;;;;5073254;28;20078;-67
2023/05/09 04:16:42;;;;;;;11.82;8.40;;;;;;;;;;5073957;28;20104;-67
2023/05/09 04:19:09;;;;;;;8.63;6.72;;;;;;;;;;5073794;28;20025;-69
2023/05/09 04:21:36;;;;;;;9.95;5.72;;;;;;;;;;5073452;28;20036;-69
2023/05/09 04:24:03;;;;;;;10.43;6.03;;;;;;;;;;5073884;28;20020;-69
2023/05/09 04:26:30;;;;;;;14.07;8.38;;;;;;;;;;5073646;28;20032;-70
2023/05/09 04:28:57;;;;;;;16.92;11.35;;;;;;;;;;5073053;28;20028;-69
2023/05/09 04:31:23;;;;;;;15.40;8.82;;;;;;;;;;5073120;28;20056;-71
2023/05/09 04:33:50;;;;;;;13.10;7.43;;;;;;;;;;5053588;28;20017;-71
2023/05/09 04:36:16;;;;;;;11.55;7.47;;;;;;;;;;5053642;28;20043;-67
2023/05/09 04:38:43;;;;;;;9.90;5.93;;;;;;;;;;5053431;28;20231;-72
2023/05/09 04:41:10;;;;;;;8.73;5.97;;;;;;;;;;5052987;28;20017;-73
2023/05/09 04:43:36;;;;;;;9.63;5.45;;;;;;;;;;5053474;28;20039;-70
2023/05/09 04:46:03;;;;;;;13.55;5.75;;;;;;;;;;5053261;28;20029;-69
2023/05/09 04:48:30;;;;;;;10.63;6.35;;;;;;;;;;5053446;28;20028;-72
2023/05/09 04:50:56;;;;;;;10.60;7.45;;;;;;;;;;5053475;28;20485;-70
2023/05/09 04:53:23;;;;;;;15.13;9.23;;;;;;;;;;5057046;28;20025;-70
2023/05/09 04:55:50;;;;;;;16.48;11.23;;;;;;;;;;5057049;28;20029;-70
2023/05/09 04:58:17;;;;;;;18.17;11.07;;;;;;;;;;5056643;28;20082;-70
2023/05/09 05:00:44;;;;;;;20.27;11.93;;;;;;;;;;5056898;28;20050;-69
2023/05/09 05:03:10;;;;;;;15.35;10.35;;;;;;;;;;5056931;28;20028;-71
2023/05/09 05:05:39;;;;;;;14.15;10.00;;;;;;;;;;5056637;28;20137;-71
2023/05/09 05:08:05;;;;;;;10.13;6.97;;;;;;;;;;5056779;28;20024;-70
2023/05/09 05:10:32;;;;;;;38.85;9.15;;;;;;;;;;5056969;28;20021;-71
2023/05/09 05:12:59;;;;;;;16.00;9.10;;;;;;;;;;5056905;28;20013;-70
2023/05/09 05:15:25;;;;;;;14.18;8.55;;;;;;;;;;5056623;28;20028;-70
2023/05/09 05:17:52;;;;;;;18.83;9.57;;;;;;;;;;5064309;28;20473;-71
2023/05/09 05:20:20;;;;;;;18.95;10.02;;;;;;;;;;5075966;28;20436;-71
2023/05/09 05:22:46;;;;;;;23.02;9.93;;;;;;;;;;5075538;28;20028;-71
2023/05/09 05:25:13;;;;;;;25.42;9.27;;;;;;;;;;5075903;28;20032;-75
2023/05/09 05:27:40;;;;;;;17.20;8.18;;;;;;;;;;5076092;28;20086;-68
2023/05/09 05:30:07;;;;;;;17.90;7.95;;;;;;;;;;5075790;28;20094;-71
2023/05/09 05:32:33;;;;;;;15.40;6.72;;;;;;;;;;5075925;28;20404;-72
2023/05/09 05:35:01;;;;;;;10.27;5.00;;;;;;;;;;5075819;28;20355;-73
2023/05/09 05:37:28;;;;;;;13.63;5.32;;;;;;;;;;5075643;28;20059;-72
2023/05/09 05:39:54;;;;;;;19.63;6.30;;;;;;;;;;5076396;28;20029;-71
2023/05/09 05:42:21;;;;;;;9.45;5.47;;;;;;;;;;5076437;28;20031;-71
2023/05/09 05:44:47;;;;;;;13.15;5.50;;;;;;;;;;5075921;28;20108;-69
2023/05/09 05:47:14;;;;;;;8.25;5.82;;;;;;;;;;5075925;28;20491;-71
2023/05/09 05:49:41;;;;;;;7.63;4.90;;;;;;;;;;5076031;28;20469;-71
2023/05/09 05:52:07;;;;;;;8.35;4.88;;;;;;;;;;5075726;28;20119;-72
2023/05/09 05:54:34;;;;;;;8.25;5.30;;;;;;;;;;5076695;28;20493;-72
2023/05/09 05:57:01;;;;;;;8.20;3.85;;;;;;;;;;5076829;28;20052;-72
2023/05/09 05:59:27;;;;;;;10.70;5.13;;;;;;;;;;5065614;28;20354;-71
2023/05/09 06:01:54;;;;;;;8.63;4.60;;;;;;;;;;5076074;28;20034;-71
2023/05/09 06:04:21;;;;;;;6.72;4.85;;;;;;;;;;5075932;28;20059;-71
2023/05/09 06:06:47;;;;;;;12.07;5.32;;;;;;;;;;5076083;28;20027;-69
2023/05/09 06:09:14;;;;;;;8.48;4.60;;;;;;;;;;5075888;28;20052;-70
2023/05/09 06:11:41;;;;;;;7.30;3.28;;;;;;;;;;5074844;28;20078;-71
2023/05/09 06:14:07;;;;;;;6.82;3.67;;;;;;;;;;5075156;28;20397;-72
2023/05/09 06:16:34;;;;;;;5.90;3.65;;;;;;;;;;5075115;28;20201;-70
2023/05/09 06:19:01;;;;;;;6.93;3.42;;;;;;;;;;5074907;28;20017;-69
2023/05/09 06:21:27;;;;;;;8.13;4.45;;;;;;;;;;5074948;28;20034;-73
2023/05/09 06:23:54;;;;;;;7.53;4.18;;;;;;;;;;5074739;28;20017;-70
2023/05/09 06:26:21;;;;;;;6.47;4.57;;;;;;;;;;5074792;28;20027;-72
2023/05/09 06:28:47;;;;;;;12.02;5.05;;;;;;;;;;5074737;28;20039;-72
2023/05/09 06:31:14;;;;;;;8.05;4.97;;;;;;;;;;5074572;28;20012;-71
2023/05/09 06:33:40;;;;;;;9.52;4.55;;;;;;;;;;5074723;28;20032;-70
2023/05/09 06:36:07;;;;;;;6.22;3.90;;;;;;;;;;5074542;28;20033;-70
2023/05/09 06:38:34;;;;;;;7.95;3.72;;;;;;;;;;5074344;28;20032;-70
2023/05/09 06:41:00;;;;;;;5.28;3.20;;;;;;;;;;5073709;28;20107;-71
2023/05/09 06:43:27;;;;;;;5.97;3.58;;;;;;;;;;5069412;28;20086;-73
2023/05/09 06:45:54;;;;;;;11.50;8.77;;;;;;;;;;5072576;28;20020;-70
2023/05/09 06:48:22;;;;;;;9.48;5.88;;;;;;;;;;5073018;28;20422;-70
2023/05/09 06:50:49;;;;;;;9.07;4.03;;;;;;;;;;5072010;28;20020;-71
2023/05/09 06:53:16;;;;;;;6.20;3.50;;;;;;;;;;5074036;28;20024;-72
2023/05/09 06:55:43;;;;;;;7.68;4.05;;;;;;;;;;5074019;28;20072;-72
2023/05/09 06:58:10;;;;;;;6.15;3.90;;;;;;;;;;5071331;28;20028;-71
2023/05/09 07:00:36;;;;;;;8.18;4.05;;;;;;;;;;5073753;28;20027;-70
2023/05/09 07:03:05;;;;;;;7.03;4.00;;;;;;;;;;5073716;28;20493;-69
2023/05/09 07:05:33;;;;;;;7.45;4.32;;;;;;;;;;5073379;28;20056;-70
2023/05/09 07:08:00;;;;;;;7.95;4.30;;;;;;;;;;5073583;28;20024;-70
2023/05/09 07:10:27;;;;;;;9.13;4.57;;;;;;;;;;5072550;28;20025;-69
2023/05/09 07:12:53;;;;;;;6.03;4.65;;;;;;;;;;5072696;28;20546;-69
2023/05/09 07:15:20;;;;;;;11.10;4.70;;;;;;;;;;5072115;28;20032;-75
2023/05/09 07:17:47;;;;;;;7.53;3.88;;;;;;;;;;5073156;28;20024;-72
2023/05/09 07:20:13;;;;;;;9.27;4.20;;;;;;;;;;5072401;28;20374;-71
2023/05/09 07:22:40;;;;;;;10.88;4.20;;;;;;;;;;5072791;28;20048;-72
2023/05/09 07:25:08;;;;;;;8.05;4.80;;;;;;;;;;5072950;28;20432;-71
2023/05/09 07:27:35;;;;;;;22.98;13.95;;;;;;;;;;5073776;28;20074;-69
2023/05/09 07:30:03;;;;;;;11.75;10.07;;;;;;;;;;5073578;28;20017;-71
2023/05/09 07:32:30;;;;;;;14.32;9.52;;;;;;;;;;5073672;28;20086;-70
2023/05/09 07:34:56;;;;;;;10.70;4.90;;;;;;;;;;5073551;28;20086;-71
2023/05/09 07:37:23;;;;;;;13.02;6.00;;;;;;;;;;5072992;28;20024;-70
2023/05/09 07:39:50;;;;;;;15.45;9.43;;;;;;;;;;5072451;28;20028;-72
2023/05/09 07:42:17;;;;;;;6.38;4.60;;;;;;;;;;5073205;28;20385;-70
2023/05/09 07:44:44;;;;;;;9.10;5.22;;;;;;;;;;5072896;28;20013;-74
2023/05/09 07:47:11;;;;;;;12.27;7.22;;;;;;;;;;5072647;28;20017;-70
2023/05/09 07:49:39;;;;;;;10.30;5.97;;;;;;;;;;5072594;28;20029;-72
2023/05/09 07:52:06;;;;;;;7.35;5.47;;;;;;;;;;5069935;28;20111;-72
2023/05/09 07:54:32;;;;;;;7.90;5.22;;;;;;;;;;5071479;28;20108;-68
2023/05/09 07:56:59;;;;;;;10.45;4.93;;;;;;;;;;5072148;28;20028;-73
2023/05/09 07:59:26;;;;;;;7.97;4.40;;;;;;;;;;5072472;28;20020;-70
2023/05/09 08:01:52;;;;;;;11.70;5.07;;;;;;;;;;5072583;28;20070;-69
2023/05/09 08:04:19;;;;;;;6.72;4.47;;;;;;;;;;5072144;28;20488;-68
2023/05/09 08:06:46;;;;;;;11.05;5.53;;;;;;;;;;5071970;28;20108;-71
2023/05/09 08:09:12;;;;;;;7.90;5.28;;;;;;;;;;5073274;28;20032;-70
2023/05/09 08:11:39;;;;;;;12.45;6.20;;;;;;;;;;5073212;28;20017;-69
2023/05/09 08:14:06;;;;;;;16.63;8.38;;;;;;;;;;5073250;28;20021;-72
2023/05/09 08:16:32;;;;;;;13.88;7.72;;;;;;;;;;5073238;28;20052;-69
2023/05/09 08:18:59;;;;;;;20.75;12.02;;;;;;;;;;5073139;28;20031;-69
2023/05/09 08:21:26;;;;;;;12.55;8.48;;;;;;;;;;5072073;28;20017;-71
2023/05/09 08:23:52;;;;;;;9.23;6.13;;;;;;;;;;5074507;28;20030;-69
2023/05/09 08:26:21;;;;;;;12.80;6.88;;;;;;;;;;5073221;28;20024;-70
2023/05/09 08:28:48;;;;;;;11.63;6.85;;;;;;;;;;5076511;28;20012;-70
2023/05/09 08:31:15;;;;;;;14.57;6.93;;;;;;;;;;5076380;28;20013;-69
2023/05/09 08:33:41;;;;;;;16.75;12.00;;;;;;;;;;5076400;28;20032;-69
2023/05/09 08:36:08;;;;;;;28.77;15.63;;;;;;;;;;5073572;28;20023;-69
2023/05/09 08:38:35;;;;;;;45.17;35.13;;;;;;;;;;5077367;28;20016;-69
2023/05/09 08:41:02;;;;;;;20.40;12.82;;;;;;;;;;5076206;28;20102;-68
2023/05/09 08:43:29;;;;;;;13.82;8.18;;;;;;;;;;5073716;28;20021;-69
2023/05/09 08:45:59;;;;;;;12.70;7.00;;;;;;;;;;5075910;28;20033;-70
2023/05/09 08:48:26;;;;;;;8.35;5.95;;;;;;;;;;5076114;28;20477;-70
2023/05/09 08:50:54;;;;;;;19.98;9.60;;;;;;;;;;5076068;28;20017;-70
2023/05/09 08:53:21;;;;;;;15.48;9.82;;;;;;;;;;5075918;28;20443;-69
2023/05/09 08:55:49;;;;;;;19.45;13.43;;;;;;;;;;5076139;28;20432;-70
2023/05/09 08:58:18;;;;;;;18.25;12.93;;;;;;;;;;5075996;28;20043;-70
2023/05/09 09:00:45;;;;;;;28.23;15.02;;;;;;;;;;5076118;28;20078;-70
2023/05/09 09:03:12;;;;;;;20.58;11.20;;;;;;;;;;5075815;28;20035;-70
2023/05/09 09:05:42;;;;;;;21.42;9.30;;;;;;;;;;5075308;28;20108;-70
2023/05/09 09:08:10;;;;;;;18.02;9.15;;;;;;;;;;5075493;28;20063;-69
2023/05/09 09:10:41;;;;;;;16.83;8.18;;;;;;;;;;5074566;28;20025;-71
2023/05/09 09:13:08;;;;;;;20.67;6.93;;;;;;;;;;5070490;28;20077;-69
2023/05/09 09:15:36;;;;;;;10.25;6.10;;;;;;;;;;5075855;28;20021;-70
2023/05/09 09:18:05;;;;;;;18.88;7.93;;;;;;;;;;5075776;28;20107;-69
2023/05/09 09:20:33;;;;;;;10.13;7.50;;;;;;;;;;5075884;28;20027;-69
2023/05/09 09:23:00;;;;;;;14.50;8.57;;;;;;;;;;5076089;28;20028;-69
2023/05/09 09:25:27;;;;;;;17.30;7.45;;;;;;;;;;5075774;28;20394;-69
2023/05/09 09:27:54;;;;;;;19.63;12.35;;;;;;;;;;5075501;28;20052;-70
2023/05/09 09:30:23;;;;;;;17.58;12.85;;;;;;;;;;5075797;28;20025;-70
2023/05/09 09:32:50;;;;;;;22.20;15.30;;;;;;;;;;5075855;28;20020;-68
2023/05/09 09:35:16;;;;;;;11.23;7.55;;;;;;;;;;5075674;28;20060;-69
2023/05/09 09:37:43;;;;;;;13.35;5.90;;;;;;;;;;5075242;28;20028;-68
2023/05/09 09:40:11;;;;;;;20.20;7.95;;;;;;;;;;5075722;28;20107;-68
2023/05/09 09:42:40;;;;;;;10.88;6.63;;;;;;;;;;5075601;28;20029;-69
2023/05/09 09:45:10;;;;;;;26.48;15.07;;;;;;;;;;5074954;28;20039;-71
2023/05/09 09:47:37;;;;;;;51.55;35.63;;;;;;;;;;5076362;28;20036;-70
2023/05/09 09:50:06;;;;;;;71.43;48.45;;;;;;;;;;5075025;28;20430;-69
2023/05/09 09:52:33;;;;;;;60.22;40.85;;;;;;;;;;5074642;28;20532;-69
2023/05/09 09:55:00;;;;;;;27.05;15.40;;;;;;;;;;5074160;28;20027;-67
2023/05/09 09:57:29;;;;;;;59.95;35.83;;;;;;;;;;5074648;28;20040;-69
2023/05/09 09:59:58;;;;;;;37.53;17.52;;;;;;;;;;5074789;28;20459;-73
2023/05/09 10:02:25;;;;;;;34.03;13.15;;;;;;;;;;5075034;28;20028;-70
2023/05/09 10:04:52;;;;;;;60.33;35.55;;;;;;;;;;5074873;28;20068;-70
2023/05/09 10:07:24;;;;;;;34.33;19.40;;;;;;;;;;5075224;28;20475;-71
2023/05/09 10:09:50;;;;;;;34.67;17.38;;;;;;;;;;5075209;28;20099;-70
2023/05/09 10:12:19;;;;;;;48.88;28.10;;;;;;;;;;5075033;28;20020;-71
2023/05/09 10:14:47;;;;;;;34.00;19.95;;;;;;;;;;5075162;28;20020;-70
2023/05/09 10:17:14;;;;;;;32.40;18.17;;;;;;;;;;5074980;28;20039;-70
2023/05/09 10:19:44;;;;;;;38.92;25.35;;;;;;;;;;5074554;28;20108;-71
2023/05/09 10:22:13;;;;;;;42.25;22.67;;;;;;;;;;5074945;28;20470;-70
2023/05/09 10:24:45;;;;;;;27.92;18.33;;;;;;;;;;5074660;28;20154;-70
2023/05/09 10:27:12;;;;;;;32.97;18.90;;;;;;;;;;5074886;28;20025;-70
2023/05/09 10:29:46;;;;;;;30.65;13.27;;;;;;;;;;5074818;28;20020;-71
2023/05/09 10:32:16;;;;;;;49.88;13.32;;;;;;;;;;5074669;28;20104;-70
2023/05/09 10:34:46;;;;;;;31.20;16.70;;;;;;;;;;5074709;28;20082;-71
2023/05/09 10:37:13;;;;;;;35.75;19.33;;;;;;;;;;5074656;28;20024;-70
2023/05/09 10:39:41;;;;;;;73.60;19.20;;;;;;;;;;5073162;28;20115;-70
2023/05/09 10:42:08;;;;;;;25.17;12.55;;;;;;;;;;5074099;28;20481;-71
2023/05/09 10:44:35;;;;;;;20.85;8.00;;;;;;;;;;5074491;28;20074;-71
2023/05/09 10:47:02;;;;;;;13.77;7.47;;;;;;;;;;5074382;28;20047;-70
2023/05/09 10:49:30;;;;;;;14.13;9.93;;;;;;;;;;5073441;28;20099;-69
2023/05/09 10:51:56;;;;;;;10.50;7.38;;;;;;;;;;5073804;28;20424;-70
2023/05/09 10:54:26;;;;;;;10.95;6.43;;;;;;;;;;5074199;28;20020;-70
2023/05/09 10:56:53;;;;;;;11.80;6.50;;;;;;;;;;5074300;28;20017;-69
2023/05/09 10:59:22;;;;;;;17.17;8.15;;;;;;;;;;5074247;28;20422;-68
2023/05/09 11:01:59;;;;;;;14.32;8.00;;;;;;;;;;5073881;28;20029;-70
2023/05/09 11:04:26;;;;;;;19.13;8.55;;;;;;;;;;5073913;28;20107;-70
2023/05/09 11:06:53;;;;;;;21.25;8.45;;;;;;;;;;5073996;28;20405;-69
2023/05/09 11:09:26;;;;;;;12.30;6.28;;;;;;;;;;5074125;28;20024;-69
2023/05/09 11:11:56;;;;;;;10.90;6.65;;;;;;;;;;5074020;28;20021;-70
2023/05/09 11:14:25;;;;;;;10.75;6.03;;;;;;;;;;5073786;28;20028;-70
2023/05/09 11:16:54;;;;;;;11.75;5.88;;;;;;;;;;5074004;28;20032;-70
2023/05/09 11:19:23;;;;;;;8.02;5.07;;;;;;;;;;5073092;28;20021;-70
2023/05/09 11:22:10;;;;;;;11.93;6.53;;;;;;;;;;5073752;28;20021;-69
2023/05/09 11:24:37;;;;;;;14.80;8.35;;;;;;;;;;5073220;28;20036;-70
2023/05/09 11:27:22;;;;;;;11.60;8.23;;;;;;;;;;5073851;28;20032;-70
2023/05/09 11:29:51;;;;;;;12.40;6.65;;;;;;;;;;5073693;28;20017;-70
2023/05/09 11:32:18;;;;;;;9.45;6.20;;;;;;;;;;5073608;28;20021;-70
2023/05/09 11:34:45;;;;;;;7.72;5.18;;;;;;;;;;5073581;28;20028;-70
2023/05/09 11:37:13;;;;;;;8.65;5.57;;;;;;;;;;5074036;28;20111;-70
2023/05/09 11:39:42;;;;;;;8.90;5.28;;;;;;;;;;5073452;28;20035;-69
2023/05/09 11:42:09;;;;;;;7.95;5.78;;;;;;;;;;5071503;28;20477;-69
2023/05/09 11:44:36;;;;;;;11.18;6.10;;;;;;;;;;5073279;28;20051;-69
2023/05/09 11:47:02;;;;;;;7.90;5.50;;;;;;;;;;5073423;28;20021;-71
2023/05/09 11:49:29;;;;;;;8.75;5.25;;;;;;;;;;5072722;28;20017;-70
2023/05/09 11:51:59;;;;;;;9.55;5.15;;;;;;;;;;5072975;28;20123;-70
2023/05/09 11:54:26;;;;;;;12.00;5.43;;;;;;;;;;5073380;28;20039;-69
2023/05/09 11:56:52;;;;;;;11.52;6.50;;;;;;;;;;5073376;28;20024;-69
2023/05/09 11:59:19;;;;;;;9.32;5.70;;;;;;;;;;5073286;28;20021;-68
2023/05/09 12:01:45;;;;;;;10.10;5.22;;;;;;;;;;5072648;28;20133;-70
2023/05/09 12:04:12;;;;;;;8.23;5.03;;;;;;;;;;5073039;28;20094;-69
2023/05/09 12:06:39;;;;;;;8.88;5.55;;;;;;;;;;5072971;28;20123;-69
2023/05/09 12:09:06;;;;;;;9.77;4.65;;;;;;;;;;5071804;28;20385;-70
2023/05/09 12:11:33;;;;;;;13.07;4.80;;;;;;;;;;5073085;28;20051;-70
2023/05/09 12:14:00;;;;;;;6.85;5.05;;;;;;;;;;5073185;28;20023;-71
2023/05/09 12:16:27;;;;;;;12.60;4.90;;;;;;;;;;5072855;28;20427;-71
2023/05/09 12:18:53;;;;;;;19.80;8.30;;;;;;;;;;5072655;28;20086;-72
2023/05/09 12:21:20;;;;;;;12.27;7.10;;;;;;;;;;5073181;28;20055;-70
2023/05/09 12:23:47;;;;;;;17.60;8.75;;;;;;;;;;5069950;28;20082;-70
2023/05/09 12:26:14;;;;;;;15.85;7.68;;;;;;;;;;5073122;28;20466;-69
2023/05/09 12:28:41;;;;;;;16.10;7.25;;;;;;;;;;5072869;28;20028;-69
2023/05/09 12:31:08;;;;;;;16.75;8.63;;;;;;;;;;5073279;28;20016;-69
2023/05/09 12:33:34;;;;;;;19.35;8.82;;;;;;;;;;5073762;28;20384;-69
2023/05/09 12:36:05;;;;;;;19.65;9.10;;;;;;;;;;5074016;28;20028;-70
2023/05/09 12:38:32;;;;;;;19.15;9.50;;;;;;;;;;5073510;28;20032;-70
2023/05/09 12:41:00;;;;;;;17.50;9.15;;;;;;;;;;5073960;28;20071;-69
2023/05/09 12:43:29;;;;;;;16.90;8.50;;;;;;;;;;5073910;28;20025;-69
2023/05/09 12:45:58;;;;;;;29.10;12.23;;;;;;;;;;5073739;28;20023;-69
2023/05/09 12:48:25;;;;;;;37.08;17.35;;;;;;;;;;5073363;28;20028;-68
2023/05/09 12:50:51;;;;;;;42.60;24.98;;;;;;;;;;5073598;28;20470;-68
2023/05/09 12:53:21;;;;;;;32.50;16.23;;;;;;;;;;5073463;28;20021;-69
2023/05/09 12:55:47;;;;;;;27.42;13.98;;;;;;;;;;5073328;28;20024;-68
2023/05/09 12:58:14;;;;;;;30.20;11.95;;;;;;;;;;5073109;28;20024;-69
2023/05/09 13:00:44;;;;;;;31.30;11.48;;;;;;;;;;5072788;28;20027;-71
2023/05/09 13:03:13;;;;;;;23.40;11.10;;;;;;;;;;5073153;28;20032;-69
2023/05/09 13:05:40;;;;;;;19.40;11.13;;;;;;;;;;5072699;28;20043;-70
2023/05/09 13:08:06;;;;;;;29.90;11.55;;;;;;;;;;5072907;28;20034;-70
2023/05/09 13:10:33;;;;;;;26.17;10.93;;;;;;;;;;5072399;28;20469;-70
2023/05/09 13:13:01;;;;;;;17.65;8.68;;;;;;;;;;5074385;28;20028;-69
2023/05/09 13:15:28;;;;;;;17.48;8.27;;;;;;;;;;5076217;28;20039;-70
2023/05/09 13:17:55;;;;;;;16.75;7.60;;;;;;;;;;5076124;28;20043;-69
2023/05/09 13:20:21;;;;;;;18.23;9.15;;;;;;;;;;5076293;28;20029;-70
2023/05/09 13:22:49;;;;;;;16.02;9.85;;;;;;;;;;5076243;28;20036;-69
2023/05/09 13:25:15;;;;;;;16.52;9.23;;;;;;;;;;5076076;28;20045;-68
2023/05/09 13:27:42;;;;;;;16.15;8.38;;;;;;;;;;5076155;28;20544;-68
2023/05/09 13:30:09;;;;;;;20.10;8.63;;;;;;;;;;5075123;28;20028;-69
2023/05/09 13:32:35;;;;;;;18.13;9.07;;;;;;;;;;5070883;28;20431;-68
2023/05/09 13:35:03;;;;;;;19.02;10.88;;;;;;;;;;5075384;28;20032;-69
2023/05/09 13:37:29;;;;;;;18.92;10.10;;;;;;;;;;5072854;28;20044;-70
2023/05/09 13:39:56;;;;;;;17.02;8.77;;;;;;;;;;5068555;28;20025;-68
2023/05/09 13:42:23;;;;;;;20.52;10.00;;;;;;;;;;5075088;28;20029;-68
2023/05/09 13:44:49;;;;;;;20.13;10.25;;;;;;;;;;5074850;28;20028;-70
2023/05/09 13:47:16;;;;;;;20.50;9.57;;;;;;;;;;5075659;28;20042;-68
2023/05/09 13:49:43;;;;;;;37.63;23.42;;;;;;;;;;5066236;28;20016;-68
2023/05/09 13:52:09;;;;;;;20.13;11.27;;;;;;;;;;5075421;28;20055;-68
2023/05/09 13:54:36;;;;;;;16.92;9.95;;;;;;;;;;5074776;28;20054;-68
2023/05/09 13:57:03;;;;;;;18.05;9.98;;;;;;;;;;5075603;28;20021;-68
2023/05/09 13:59:31;;;;;;;17.52;10.85;;;;;;;;;;5074673;28;20031;-67
2023/05/09 14:01:58;;;;;;;22.73;11.68;;;;;;;;;;5074666;28;20485;-68
2023/05/09 14:04:26;;;;;;;19.00;12.52;;;;;;;;;;5075115;28;20393;-68
2023/05/09 14:06:53;;;;;;;16.98;11.80;;;;;;;;;;5074556;28;20043;-70
2023/05/09 14:09:21;;;;;;;29.15;14.25;;;;;;;;;;5075359;28;20014;-68
2023/05/09 14:11:55;;;;;;;26.20;14.57;;;;;;;;;;5073968;28;20032;-70
2023/05/09 14:14:24;;;;;;;30.70;17.05;;;;;;;;;;5074639;28;20016;-69
2023/05/09 14:16:52;;;;;;;30.52;16.52;;;;;;;;;;5074056;28;20040;-68
2023/05/09 14:19:19;;;;;;;28.92;16.48;;;;;;;;;;5074386;28;20485;-68
2023/05/09 14:21:46;;;;;;;21.80;14.18;;;;;;;;;;5074525;28;20060;-68
2023/05/09 14:24:12;;;;;;;24.48;13.27;;;;;;;;;;5074496;28;20389;-68
2023/05/09 14:26:39;;;;;;;18.35;11.40;;;;;;;;;;5073997;28;20067;-68
2023/05/09 14:29:06;;;;;;;26.67;13.20;;;;;;;;;;5074605;28;20024;-66